createdAt,value
2022-10-21T00:00:30.890Z,99932.22
2022-10-21T00:01:35.335Z,99929.56
2022-10-21T00:02:39.369Z,99932.28
2022-10-21T00:03:43.555Z,99932.28
2022-10-21T00:04:47.184Z,99923.44
2022-10-21T00:05:54.582Z,99925.22
2022-10-21T00:06:58.694Z,99929.69
2022-10-21T00:08:02.576Z,99928.09
2022-10-21T00:09:09.333Z,99927.19
2022-10-21T00:10:14.672Z,99931.59
2022-10-21T00:11:19.167Z,99926.31
2022-10-21T00:12:23.958Z,99930.81
2022-10-21T00:13:30.726Z,99925.56
2022-10-21T00:14:35.663Z,99926.38
2022-10-21T00:15:39.794Z,99927.34
2022-10-21T00:16:43.941Z,99941.34
2022-10-21T00:17:48.012Z,99941.34
2022-10-21T00:18:52.420Z,99940.34
2022-10-21T00:19:56.554Z,99934.31
2022-10-21T00:21:00.907Z,99927.25
2022-10-21T00:22:04.897Z,99928.03
2022-10-21T00:23:08.558Z,99925.47
2022-10-21T00:24:12.221Z,99930.72
2022-10-21T00:25:16.958Z,99929.13
2022-10-21T00:26:21.257Z,99920.28
2022-10-21T00:27:25.374Z,99923.75
2022-10-21T00:28:29.860Z,99920.28
2022-10-21T00:29:33.905Z,99919.44
2022-10-21T00:30:37.646Z,99916.81
2022-10-21T00:31:41.713Z,99915.88
2022-10-21T00:32:46.002Z,99909.75
2022-10-21T00:33:49.929Z,99910.59
2022-10-21T00:34:57.038Z,99906.19
2022-10-21T00:36:03.173Z,99898.34
2022-10-21T00:37:06.874Z,99891.41
2022-10-21T00:38:10.799Z,99893.03
2022-10-21T00:39:15.716Z,99889.69
2022-10-21T00:40:19.706Z,99884.53
2022-10-21T00:41:24.151Z,99878.38
2022-10-21T00:42:43.733Z,99873.28
2022-10-21T00:44:08.758Z,99874.25
2022-10-21T00:45:32.103Z,99871.72
2022-10-21T00:47:03.577Z,99877.00
2022-10-21T00:48:19.045Z,99877.00
2022-10-21T00:49:45.534Z,99884.13
2022-10-21T00:51:06.724Z,99874.50
2022-10-21T00:52:18.642Z,99874.59
2022-10-21T00:53:23.243Z,99868.31
2022-10-21T00:54:30.047Z,99864.75
2022-10-21T00:55:39.865Z,99856.06
2022-10-21T00:56:48.641Z,99852.59
2022-10-21T00:57:53.350Z,99849.13
2022-10-21T00:59:02.158Z,99841.41
2022-10-21T01:00:09.033Z,99834.59
2022-10-21T01:01:16.492Z,99836.47
2022-10-21T01:02:23.631Z,99841.03
2022-10-21T01:03:31.771Z,99839.31
2022-10-21T01:04:36.182Z,99845.50
2022-10-21T01:05:42.532Z,99848.16
2022-10-21T01:06:47.749Z,99857.13
2022-10-21T01:07:52.359Z,99860.69
2022-10-21T01:08:58.378Z,99865.94
2022-10-21T01:10:02.375Z,99867.66
2022-10-21T01:11:15.239Z,99865.88
2022-10-21T01:12:48.976Z,99865.19
2022-10-21T01:14:26.905Z,99857.47
2022-10-21T01:16:07.430Z,99855.63
2022-10-21T01:17:55.128Z,99858.44
2022-10-21T01:19:21.724Z,99845.09
2022-10-21T01:21:21.744Z,99840.75
2022-10-21T01:22:39.268Z,99834.56
2022-10-21T01:23:58.172Z,99835.50
2022-10-21T01:25:20.231Z,99828.56
2022-10-21T01:27:06.059Z,99832.97
2022-10-21T01:28:52.133Z,99840.06
2022-10-21T01:30:06.433Z,99843.72
2022-10-21T01:31:42.702Z,99844.47
2022-10-21T01:33:18.064Z,99843.63
2022-10-21T01:34:43.883Z,99846.25
2022-10-21T01:36:09.538Z,99840.94
2022-10-21T01:37:47.664Z,99845.22
2022-10-21T01:39:40.604Z,99845.47
2022-10-21T01:41:16.103Z,99852.44
2022-10-21T01:42:41.633Z,99840.19
2022-10-21T01:44:07.197Z,99841.16
2022-10-21T01:45:37.721Z,99853.38
2022-10-21T01:46:59.624Z,99848.88
2022-10-21T01:48:19.704Z,99849.00
2022-10-21T01:49:37.098Z,99843.63
2022-10-21T01:50:58.965Z,99843.63
2022-10-21T01:52:05.084Z,99839.22
2022-10-21T01:53:14.353Z,99835.56
2022-10-21T01:54:30.524Z,99838.19
2022-10-21T01:55:36.723Z,99836.41
2022-10-21T01:56:47.020Z,99838.91
2022-10-21T01:57:59.796Z,99839.78
2022-10-21T01:59:05.865Z,99835.31
2022-10-21T02:00:11.081Z,99842.41
2022-10-21T02:03:34.456Z,99834.69
2022-10-21T02:04:44.907Z,99828.56
2022-10-21T02:05:49.037Z,99823.50
2022-10-21T02:06:52.918Z,99825.19
2022-10-21T02:07:57.052Z,99831.47
2022-10-21T02:09:01.507Z,99831.25
2022-10-21T02:10:06.768Z,99832.97
2022-10-21T02:11:13.825Z,99832.97
2022-10-21T02:12:19.921Z,99843.63
2022-10-21T02:13:32.955Z,99834.75
2022-10-21T02:14:47.027Z,99838.34
2022-10-21T02:15:56.710Z,99829.53
2022-10-21T02:17:01.310Z,99829.66
2022-10-21T02:18:17.497Z,99835.72
2022-10-21T02:19:22.133Z,99838.34
2022-10-21T02:20:29.755Z,99838.34
2022-10-21T02:21:36.941Z,99840.06
2022-10-21T02:22:45.737Z,99838.34
2022-10-21T02:24:13.090Z,99836.75
2022-10-21T02:25:26.258Z,99830.56
2022-10-21T02:26:30.283Z,99838.34
2022-10-21T02:27:34.116Z,99832.25
2022-10-21T02:29:52.036Z,99832.31
2022-10-21T02:31:22.354Z,99827.06
2022-10-21T02:32:43.097Z,99827.06
2022-10-21T02:34:05.484Z,99818.31
2022-10-21T02:35:55.837Z,99813.81
2022-10-21T02:37:52.722Z,99812.13
2022-10-21T02:39:12.102Z,99815.69
2022-10-21T02:40:30.304Z,99809.56
2022-10-21T02:41:36.959Z,99817.53
2022-10-21T02:42:52.298Z,99814.97
2022-10-21T02:44:03.524Z,99815.03
2022-10-21T02:45:09.931Z,99812.56
2022-10-21T02:46:15.549Z,99815.19
2022-10-21T02:47:19.628Z,99810.78
2022-10-21T02:48:23.528Z,99810.00
2022-10-21T02:49:27.651Z,99806.50
2022-10-21T02:50:31.916Z,99804.72
2022-10-21T02:51:36.029Z,99795.13
2022-10-21T02:52:39.856Z,99794.19
2022-10-21T02:53:43.987Z,99800.38
2022-10-21T02:54:47.962Z,99790.81
2022-10-21T02:55:51.685Z,99790.88
2022-10-21T02:56:55.665Z,99782.06
2022-10-21T02:58:00.767Z,99785.63
2022-10-21T02:59:04.369Z,99784.06
2022-10-21T03:00:09.107Z,99782.28
2022-10-21T03:01:13.491Z,99778.88
2022-10-21T03:02:17.610Z,99788.69
2022-10-21T03:03:21.636Z,99791.44
2022-10-21T03:04:25.347Z,99798.50
2022-10-21T03:06:33.567Z,99800.34
2022-10-21T03:07:37.307Z,99796.84
2022-10-21T03:08:41.282Z,99796.84
2022-10-21T03:09:44.904Z,99788.94
2022-10-21T03:10:53.507Z,99786.25
2022-10-21T03:11:57.384Z,99782.94
2022-10-21T03:13:01.080Z,99782.88
2022-10-21T03:14:05.195Z,99776.69
2022-10-21T03:15:09.521Z,99781.94
2022-10-21T03:16:13.872Z,99790.75
2022-10-21T03:17:21.538Z,99793.59
2022-10-21T03:18:28.254Z,99793.59
2022-10-21T03:19:33.216Z,99796.31
2022-10-21T03:20:37.310Z,99795.44
2022-10-21T03:21:41.131Z,99793.81
2022-10-21T03:22:45.079Z,99782.31
2022-10-21T03:23:49.122Z,99792.81
2022-10-21T03:24:52.799Z,99788.47
2022-10-21T03:25:56.538Z,99791.03
2022-10-21T03:27:00.365Z,99787.47
2022-10-21T03:28:04.695Z,99784.94
2022-10-21T03:29:08.287Z,99784.13
2022-10-21T03:30:11.990Z,99782.44
2022-10-21T03:31:15.773Z,99781.72
2022-10-21T03:32:19.834Z,99778.53
2022-10-21T03:33:23.932Z,99767.94
2022-10-21T03:34:30.704Z,99768.78
2022-10-21T03:35:34.308Z,99759.19
2022-10-21T03:36:37.874Z,99761.97
2022-10-21T03:37:42.249Z,99767.38
2022-10-21T03:38:45.881Z,99765.72
2022-10-21T03:39:49.809Z,99765.72
2022-10-21T03:40:53.753Z,99762.31
2022-10-21T03:41:57.314Z,99764.88
2022-10-21T03:43:01.910Z,99784.13
2022-10-21T03:44:06.672Z,99777.16
2022-10-21T03:45:12.051Z,99779.78
2022-10-21T03:46:15.725Z,99778.16
2022-10-21T03:47:19.344Z,99778.88
2022-10-21T03:48:23.683Z,99778.03
2022-10-21T03:49:27.558Z,99766.56
2022-10-21T03:50:31.699Z,99761.38
2022-10-21T03:51:35.474Z,99765.94
2022-10-21T03:52:39.440Z,99765.81
2022-10-21T03:53:44.112Z,99761.47
2022-10-21T03:54:47.812Z,99761.63
2022-10-21T03:55:56.488Z,99763.44
2022-10-21T03:57:00.618Z,99763.63
2022-10-21T03:58:04.885Z,99764.53
2022-10-21T03:59:08.810Z,99759.19
2022-10-21T04:00:13.961Z,99756.53
2022-10-21T04:01:17.608Z,99760.13
2022-10-21T04:02:21.990Z,99764.53
2022-10-21T04:03:25.807Z,99768.00
2022-10-21T04:04:29.773Z,99761.03
2022-10-21T04:05:33.935Z,99752.50
2022-10-21T04:06:37.651Z,99755.25
2022-10-21T04:07:42.035Z,99754.13
2022-10-21T04:08:45.711Z,99752.28
2022-10-21T04:09:50.181Z,99748.81
2022-10-21T04:10:56.846Z,99747.16
2022-10-21T04:12:00.834Z,99747.16
2022-10-21T04:13:04.699Z,99741.19
2022-10-21T04:14:11.574Z,99738.69
2022-10-21T04:15:18.792Z,99728.97
2022-10-21T04:16:23.514Z,99734.34
2022-10-21T04:17:27.285Z,99736.28
2022-10-21T04:18:31.432Z,99729.41
2022-10-21T04:19:35.648Z,99732.09
2022-10-21T04:20:39.620Z,99730.31
2022-10-21T04:21:43.809Z,99721.72
2022-10-21T04:22:47.717Z,99728.72
2022-10-21T04:23:51.823Z,99718.31
2022-10-21T04:24:55.414Z,99719.22
2022-10-21T04:25:59.314Z,99721.84
2022-10-21T04:27:03.146Z,99716.59
2022-10-21T04:28:06.711Z,99722.66
2022-10-21T04:29:10.330Z,99715.63
2022-10-21T04:30:13.983Z,99719.22
2022-10-21T04:31:17.815Z,99717.44
2022-10-21T04:32:21.828Z,99710.44
2022-10-21T04:33:25.630Z,99705.97
2022-10-21T04:34:29.253Z,99701.59
2022-10-21T04:35:36.082Z,99700.09
2022-10-21T04:36:39.951Z,99709.91
2022-10-21T04:37:45.069Z,99711.56
2022-10-21T04:38:49.360Z,99720.34
2022-10-21T04:39:53.999Z,99711.72
2022-10-21T04:41:00.731Z,99716.94
2022-10-21T04:42:04.817Z,99707.41
2022-10-21T04:43:10.013Z,99706.56
2022-10-21T04:44:13.977Z,99696.91
2022-10-21T04:45:19.009Z,99705.66
2022-10-21T04:46:23.331Z,99704.72
2022-10-21T04:47:27.405Z,99711.88
2022-10-21T04:48:31.122Z,99694.50
2022-10-21T04:49:35.463Z,99706.09
2022-10-21T04:50:39.452Z,99701.78
2022-10-21T04:51:43.371Z,99709.56
2022-10-21T04:52:47.956Z,99702.50
2022-10-21T04:53:52.249Z,99699.88
2022-10-21T04:54:55.850Z,99704.16
2022-10-21T04:55:59.599Z,99712.00
2022-10-21T04:57:03.354Z,99708.44
2022-10-21T04:58:07.836Z,99700.50
2022-10-21T04:59:12.171Z,99707.47
2022-10-21T05:00:16.354Z,99708.34
2022-10-21T05:01:20.453Z,99701.25
2022-10-21T05:02:25.633Z,99708.19
2022-10-21T05:03:29.762Z,99703.88
2022-10-21T05:04:33.943Z,99711.66
2022-10-21T05:05:37.938Z,99711.63
2022-10-21T05:06:41.747Z,99708.13
2022-10-21T05:07:45.935Z,99705.50
2022-10-21T05:08:49.995Z,99702.75
2022-10-21T05:09:54.034Z,99701.81
2022-10-21T05:11:03.156Z,99694.03
2022-10-21T05:12:07.374Z,99694.88
2022-10-21T05:13:11.957Z,99685.47
2022-10-21T05:14:20.013Z,99687.13
2022-10-21T05:15:26.922Z,99686.91
2022-10-21T05:16:31.005Z,99686.84
2022-10-21T05:17:36.887Z,99693.88
2022-10-21T05:18:40.866Z,99699.06
2022-10-21T05:19:45.049Z,99697.47
2022-10-21T05:20:53.964Z,99695.69
2022-10-21T05:21:57.963Z,99694.03
2022-10-21T05:23:01.876Z,99697.50
2022-10-21T05:24:06.028Z,99697.50
2022-10-21T05:25:10.456Z,99699.22
2022-10-21T05:26:14.035Z,99694.88
2022-10-21T05:27:18.413Z,99697.63
2022-10-21T05:28:23.325Z,99693.88
2022-10-21T05:29:28.608Z,99704.38
2022-10-21T05:30:33.311Z,99700.09
2022-10-21T05:31:37.379Z,99705.22
2022-10-21T05:32:42.300Z,99710.50
2022-10-21T05:33:46.051Z,99715.69
2022-10-21T05:34:50.047Z,99718.22
2022-10-21T05:36:02.784Z,99718.50
2022-10-21T05:37:06.846Z,99719.22
2022-10-21T05:38:11.714Z,99720.94
2022-10-21T05:39:16.574Z,99721.69
2022-10-21T05:40:20.372Z,99732.03
2022-10-21T05:41:24.613Z,99729.38
2022-10-21T05:42:28.367Z,99725.84
2022-10-21T05:43:32.262Z,99733.53
2022-10-21T05:44:36.158Z,99724.69
2022-10-21T05:45:39.759Z,99726.47
2022-10-21T05:46:43.926Z,99722.00
2022-10-21T05:47:47.551Z,99724.50
2022-10-21T05:48:52.952Z,99723.72
2022-10-21T05:49:57.353Z,99718.47
2022-10-21T05:51:01.181Z,99705.19
2022-10-21T05:52:08.563Z,99709.38
2022-10-21T05:53:16.739Z,99714.66
2022-10-21T05:54:21.852Z,99723.28
2022-10-21T05:55:25.798Z,99724.88
2022-10-21T05:56:30.093Z,99726.50
2022-10-21T05:57:38.656Z,99723.00
2022-10-21T05:58:42.409Z,99718.47
2022-10-21T05:59:46.622Z,99721.81
2022-10-21T06:00:54.805Z,99722.72
2022-10-21T06:01:58.576Z,99723.28
2022-10-21T06:03:03.563Z,99723.16
2022-10-21T06:04:07.946Z,99726.56
2022-10-21T06:05:11.716Z,99719.31
2022-10-21T06:06:15.841Z,99721.69
2022-10-21T06:07:19.412Z,99725.84
2022-10-21T06:08:24.152Z,99724.75
2022-10-21T06:09:31.719Z,99720.97
2022-10-21T06:10:36.638Z,99714.63
2022-10-21T06:11:41.014Z,99703.97
2022-10-21T06:12:44.831Z,99703.25
2022-10-21T06:13:49.484Z,99692.41
2022-10-21T06:14:55.176Z,99701.00
2022-10-21T06:16:00.460Z,99694.59
2022-10-21T06:17:05.169Z,99690.94
2022-10-21T06:18:12.471Z,99691.66
2022-10-21T06:19:16.962Z,99692.53
2022-10-21T06:20:24.387Z,99676.47
2022-10-21T06:21:28.425Z,99683.53
2022-10-21T06:22:32.694Z,99677.47
2022-10-21T06:23:36.954Z,99689.66
2022-10-21T06:24:40.694Z,99687.00
2022-10-21T06:26:10.920Z,99698.47
2022-10-21T06:27:15.899Z,99695.97
2022-10-21T06:28:19.601Z,99710.91
2022-10-21T06:29:23.750Z,99722.16
2022-10-21T06:30:27.734Z,99735.31
2022-10-21T06:31:31.329Z,99747.38
2022-10-21T06:32:35.937Z,99748.19
2022-10-21T06:33:40.352Z,99755.97
2022-10-21T06:34:44.713Z,99758.53
2022-10-21T06:35:49.430Z,99750.44
2022-10-21T06:36:53.710Z,99738.94
2022-10-21T06:37:57.927Z,99751.34
2022-10-21T06:39:03.541Z,99744.22
2022-10-21T06:40:09.684Z,99748.53
2022-10-21T06:41:15.655Z,99761.66
2022-10-21T06:42:20.444Z,99758.06
2022-10-21T06:43:25.015Z,99756.06
2022-10-21T06:44:28.883Z,99756.91
2022-10-21T06:45:33.087Z,99758.16
2022-10-21T06:46:37.714Z,99749.34
2022-10-21T06:47:42.276Z,99751.00
2022-10-21T06:48:46.411Z,99751.91
2022-10-21T06:49:50.559Z,99747.38
2022-10-21T06:51:04.223Z,99741.97
2022-10-21T06:52:08.913Z,99742.97
2022-10-21T06:53:12.569Z,99739.66
2022-10-21T06:54:18.819Z,99737.09
2022-10-21T06:55:22.516Z,99745.78
2022-10-21T06:56:27.934Z,99742.13
2022-10-21T06:57:32.154Z,99745.66
2022-10-21T06:58:38.484Z,99739.31
2022-10-21T06:59:44.749Z,99736.47
2022-10-21T07:00:48.687Z,99738.22
2022-10-21T07:02:00.221Z,99730.41
2022-10-21T07:03:06.959Z,99738.16
2022-10-21T07:04:11.699Z,99746.50
2022-10-21T07:05:16.499Z,99747.00
2022-10-21T07:06:20.986Z,99746.66
2022-10-21T07:07:27.958Z,99738.97
2022-10-21T07:08:46.718Z,99739.75
2022-10-21T07:09:58.019Z,99750.97
2022-10-21T07:11:02.009Z,99749.91
2022-10-21T07:12:06.153Z,99740.81
2022-10-21T07:13:10.264Z,99744.19
2022-10-21T07:14:14.909Z,99737.19
2022-10-21T07:15:19.011Z,99737.97
2022-10-21T07:16:30.387Z,99737.25
2022-10-21T07:17:34.819Z,99735.53
2022-10-21T07:18:41.899Z,99736.53
2022-10-21T07:19:47.493Z,99744.44
2022-10-21T07:20:52.090Z,99742.72
2022-10-21T07:21:55.886Z,99740.22
2022-10-21T07:22:59.846Z,99745.28
2022-10-21T07:24:03.802Z,99742.81
2022-10-21T07:25:08.925Z,99739.28
2022-10-21T07:26:15.215Z,99741.66
2022-10-21T07:27:19.168Z,99734.69
2022-10-21T07:28:22.923Z,99736.19
2022-10-21T07:29:26.883Z,99723.88
2022-10-21T07:30:31.510Z,99727.22
2022-10-21T07:31:38.767Z,99729.84
2022-10-21T07:32:42.820Z,99736.88
2022-10-21T07:33:47.204Z,99731.44
2022-10-21T07:34:51.197Z,99733.75
2022-10-21T07:36:20.854Z,99731.34
2022-10-21T07:37:27.825Z,99728.94
2022-10-21T07:38:31.510Z,99732.03
2022-10-21T07:39:35.456Z,99728.78
2022-10-21T07:40:42.826Z,99730.66
2022-10-21T07:41:51.386Z,99716.53
2022-10-21T07:42:57.140Z,99714.63
2022-10-21T07:44:07.539Z,99708.84
2022-10-21T07:45:12.558Z,99707.97
2022-10-21T07:46:19.430Z,99711.59
2022-10-21T07:47:23.485Z,99711.06
2022-10-21T07:48:27.717Z,99710.56
2022-10-21T07:49:31.471Z,99708.34
2022-10-21T07:50:36.189Z,99708.81
2022-10-21T07:51:41.320Z,99710.38
2022-10-21T07:52:53.440Z,99702.00
2022-10-21T07:54:09.072Z,99699.41
2022-10-21T07:55:17.865Z,99695.59
2022-10-21T07:56:44.825Z,99698.84
2022-10-21T07:57:51.806Z,99700.88
2022-10-21T07:58:57.217Z,99701.09
2022-10-21T08:00:01.157Z,99697.66
2022-10-21T08:01:11.334Z,99692.56
2022-10-21T08:02:16.194Z,99690.13
2022-10-21T08:03:20.205Z,99686.50
2022-10-21T08:04:30.213Z,99687.00
2022-10-21T08:05:34.177Z,99679.03
2022-10-21T08:06:38.866Z,99682.63
2022-10-21T08:07:43.302Z,99679.94
2022-10-21T08:08:51.307Z,99672.34
2022-10-21T08:09:55.153Z,99664.97
2022-10-21T08:10:59.433Z,99665.50
2022-10-21T08:12:03.597Z,99659.97
2022-10-21T08:13:07.393Z,99662.22
2022-10-21T08:14:12.422Z,99668.13
2022-10-21T08:15:16.187Z,99663.00
2022-10-21T08:16:21.216Z,99661.91
2022-10-21T08:17:25.247Z,99660.84
2022-10-21T08:18:29.524Z,99667.66
2022-10-21T08:19:36.762Z,99658.00
2022-10-21T08:20:47.018Z,99652.47
2022-10-21T08:21:51.350Z,99646.81
2022-10-21T08:22:55.256Z,99650.81
2022-10-21T08:24:02.597Z,99651.69
2022-10-21T08:25:06.952Z,99647.66
2022-10-21T08:26:16.216Z,99649.50
2022-10-21T08:27:19.902Z,99649.28
2022-10-21T08:28:26.780Z,99645.69
2022-10-21T08:29:30.340Z,99645.69
2022-10-21T08:30:34.208Z,99645.84
2022-10-21T08:31:39.184Z,99647.31
2022-10-21T08:32:43.086Z,99645.66
2022-10-21T08:33:46.886Z,99642.97
2022-10-21T08:34:50.863Z,99642.53
2022-10-21T08:35:54.576Z,99638.97
2022-10-21T08:36:58.362Z,99629.72
2022-10-21T08:38:02.427Z,99640.31
2022-10-21T08:39:06.966Z,99639.44
2022-10-21T08:40:12.845Z,99628.03
2022-10-21T08:41:31.723Z,99623.06
2022-10-21T08:42:36.458Z,99624.78
2022-10-21T08:43:43.306Z,99622.63
2022-10-21T08:45:08.772Z,99611.47
2022-10-21T08:46:23.918Z,99617.25
2022-10-21T08:47:45.969Z,99602.69
2022-10-21T08:48:59.380Z,99600.25
2022-10-21T08:50:16.368Z,99603.41
2022-10-21T08:51:55.609Z,99608.78
2022-10-21T08:53:33.938Z,99610.84
2022-10-21T08:54:54.835Z,99606.22
2022-10-21T08:56:06.898Z,99607.28
2022-10-21T08:57:12.579Z,99610.97
2022-10-21T08:58:22.158Z,99607.69
2022-10-21T08:59:26.983Z,99605.72
2022-10-21T09:00:45.038Z,99612.53
2022-10-21T09:02:13.306Z,99602.94
2022-10-21T09:03:55.772Z,99601.09
2022-10-21T09:05:41.495Z,99594.31
2022-10-21T09:07:07.298Z,99598.91
2022-10-21T09:08:39.024Z,99598.56
2022-10-21T09:10:01.801Z,99593.81
2022-10-21T09:11:19.855Z,99584.09
2022-10-21T09:13:25.612Z,99596.53
2022-10-21T09:15:17.357Z,99594.97
2022-10-21T09:16:43.667Z,99592.63
2022-10-21T09:18:18.009Z,99585.81
2022-10-21T09:19:49.098Z,99586.81
2022-10-21T09:21:36.014Z,99590.47
2022-10-21T09:22:54.462Z,99590.19
2022-10-21T09:24:12.557Z,99591.81
2022-10-21T09:25:57.049Z,99586.94
2022-10-21T09:27:04.751Z,99592.09
2022-10-21T09:28:16.540Z,99592.28
2022-10-21T09:29:26.914Z,99593.47
2022-10-21T09:30:30.779Z,99594.63
2022-10-21T09:31:34.952Z,99586.88
2022-10-21T09:32:42.055Z,99588.69
2022-10-21T09:34:02.114Z,99584.22
2022-10-21T09:35:41.264Z,99584.22
2022-10-21T09:36:50.272Z,99576.31
2022-10-21T09:38:06.121Z,99569.25
2022-10-21T09:39:32.415Z,99565.31
2022-10-21T09:40:36.619Z,99570.09
2022-10-21T09:41:46.828Z,99571.69
2022-10-21T09:42:56.436Z,99565.66
2022-10-21T09:44:00.096Z,99565.31
2022-10-21T09:45:06.029Z,99571.59
2022-10-21T09:46:14.567Z,99569.84
2022-10-21T09:47:25.088Z,99577.50
2022-10-21T09:50:20.553Z,99580.78
2022-10-21T09:51:35.508Z,99571.22
2022-10-21T09:52:40.310Z,99564.09
2022-10-21T09:53:59.440Z,99559.78
2022-10-21T09:55:06.254Z,99562.47
2022-10-21T09:56:46.637Z,99547.81
2022-10-21T09:58:00.679Z,99545.22
2022-10-21T09:59:09.938Z,99543.63
2022-10-21T10:00:14.398Z,99545.31
2022-10-21T10:01:23.785Z,99545.22
2022-10-21T10:02:37.067Z,99548.97
2022-10-21T10:03:52.267Z,99550.56
2022-10-21T10:04:57.292Z,99533.97
2022-10-21T10:06:04.880Z,99534.53
2022-10-21T10:07:32.959Z,99522.81
2022-10-21T10:08:44.780Z,99520.44
2022-10-21T10:09:49.278Z,99523.75
2022-10-21T10:11:02.632Z,99521.56
2022-10-21T10:12:15.052Z,99515.19
2022-10-21T10:13:20.899Z,99516.41
2022-10-21T10:14:29.855Z,99514.09
2022-10-21T10:15:40.528Z,99502.22
2022-10-21T10:16:45.329Z,99499.91
2022-10-21T10:17:49.497Z,99497.69
2022-10-21T10:19:28.208Z,99492.28
2022-10-21T10:20:32.468Z,99481.97
2022-10-21T10:21:36.648Z,99483.28
2022-10-21T10:22:45.816Z,99480.41
2022-10-21T10:23:56.012Z,99486.03
2022-10-21T10:25:24.464Z,99485.75
2022-10-21T10:26:38.506Z,99490.94
2022-10-21T10:28:08.352Z,99477.44
2022-10-21T10:29:28.614Z,99477.03
2022-10-21T10:31:12.015Z,99479.94
2022-10-21T10:32:17.268Z,99477.34
2022-10-21T10:33:36.820Z,99469.38
2022-10-21T10:34:56.601Z,99469.81
2022-10-21T10:36:09.455Z,99468.13
2022-10-21T10:37:27.449Z,99466.97
2022-10-21T10:38:45.466Z,99471.63
2022-10-21T10:39:58.262Z,99458.97
2022-10-21T10:41:17.040Z,99452.72
2022-10-21T10:42:27.788Z,99450.38
2022-10-21T10:43:36.023Z,99453.75
2022-10-21T10:44:44.283Z,99463.31
2022-10-21T10:45:58.529Z,99461.00
2022-10-21T10:47:06.322Z,99460.69
2022-10-21T10:48:24.381Z,99461.66
2022-10-21T10:49:36.475Z,99460.81
2022-10-21T10:50:51.121Z,99451.44
2022-10-21T10:52:10.363Z,99464.50
2022-10-21T10:53:26.280Z,99457.78
2022-10-21T10:54:30.765Z,99456.75
2022-10-21T10:55:42.545Z,99453.97
2022-10-21T10:56:55.639Z,99458.88
2022-10-21T10:58:12.404Z,99445.56
2022-10-21T10:59:39.602Z,99444.72
2022-10-21T11:00:48.422Z,99446.28
2022-10-21T11:02:31.974Z,99429.66
2022-10-21T11:03:57.631Z,99421.38
2022-10-21T11:05:17.855Z,99418.81
2022-10-21T11:06:40.365Z,99424.13
2022-10-21T11:07:53.333Z,99413.38
2022-10-21T11:09:02.980Z,99418.19
2022-10-21T11:10:33.486Z,99414.09
2022-10-21T11:11:44.474Z,99413.66
2022-10-21T11:12:48.455Z,99421.31
2022-10-21T11:13:54.029Z,99405.47
2022-10-21T11:15:00.442Z,99401.63
2022-10-21T11:16:31.414Z,99401.41
2022-10-21T11:17:53.973Z,99405.53
2022-10-21T11:19:22.385Z,99396.47
2022-10-21T11:20:40.832Z,99391.88
2022-10-21T11:22:14.377Z,99385.84
2022-10-21T11:23:57.813Z,99393.59
2022-10-21T11:25:44.136Z,99385.72
2022-10-21T11:27:16.798Z,99379.41
2022-10-21T11:28:47.595Z,99375.78
2022-10-21T11:30:22.303Z,99366.63
2022-10-21T11:32:09.767Z,99369.28
2022-10-21T11:33:56.211Z,99372.69
2022-10-21T11:35:42.243Z,99364.69
2022-10-21T11:37:28.122Z,99359.81
2022-10-21T11:39:08.593Z,99351.31
2022-10-21T11:40:43.483Z,99347.94
2022-10-21T11:42:14.903Z,99337.53
2022-10-21T11:44:03.561Z,99342.94
2022-10-21T11:45:26.411Z,99341.03
2022-10-21T11:47:43.371Z,99335.19
2022-10-21T11:49:07.322Z,99334.97
2022-10-21T11:50:32.878Z,99338.81
2022-10-21T11:52:42.766Z,99332.53
2022-10-21T11:54:07.715Z,99339.66
2022-10-21T11:55:42.573Z,99331.69
2022-10-21T11:57:14.136Z,99334.22
2022-10-21T11:58:38.055Z,99329.41
2022-10-21T12:00:24.252Z,99326.63
2022-10-21T12:01:49.430Z,99330.16
2022-10-21T12:03:14.843Z,99321.81
2022-10-21T12:05:03.582Z,99326.06
2022-10-21T12:06:38.979Z,99320.88
2022-10-21T12:08:10.326Z,99320.66
2022-10-21T12:09:31.270Z,99307.47
2022-10-21T12:11:03.987Z,99316.78
2022-10-21T12:12:34.421Z,99314.88
2022-10-21T12:14:00.566Z,99314.28
2022-10-21T12:15:26.096Z,99311.38
2022-10-21T12:16:34.809Z,99305.09
2022-10-21T12:17:38.950Z,99305.84
2022-10-21T12:18:58.275Z,99299.28
2022-10-21T12:20:22.786Z,99293.63
2022-10-21T12:21:40.674Z,99286.97
2022-10-21T12:22:46.310Z,99289.38
2022-10-21T12:24:06.259Z,99291.56
2022-10-21T12:25:12.654Z,99290.47
2022-10-21T12:26:40.677Z,99286.75
2022-10-21T12:27:59.224Z,99284.69
2022-10-21T12:29:56.159Z,99276.06
2022-10-21T12:31:16.933Z,99273.09
2022-10-21T12:32:45.279Z,99279.63
2022-10-21T12:33:50.674Z,99276.72
2022-10-21T12:34:55.138Z,99283.38
2022-10-21T12:36:38.932Z,99276.31
2022-10-21T12:38:05.767Z,99282.16
2022-10-21T12:39:35.410Z,99272.94
2022-10-21T12:40:43.871Z,99266.50
2022-10-21T12:41:48.637Z,99269.66
2022-10-21T12:43:28.711Z,99263.81
2022-10-21T12:44:33.834Z,99258.59
2022-10-21T12:45:39.191Z,99255.56
2022-10-21T12:47:21.010Z,99256.63
2022-10-21T12:48:44.531Z,99257.22
2022-10-21T12:50:22.762Z,99254.91
2022-10-21T12:51:33.906Z,99257.88
2022-10-21T12:52:39.205Z,99257.38
2022-10-21T12:54:16.728Z,99248.63
2022-10-21T12:55:28.337Z,99253.72
2022-10-21T12:56:42.782Z,99251.03
2022-10-21T12:57:56.261Z,99250.66
2022-10-21T12:59:05.513Z,99251.94
2022-10-21T13:00:28.313Z,99246.38
2022-10-21T13:01:45.397Z,99245.38
2022-10-21T13:03:10.931Z,99248.06
2022-10-21T13:04:32.708Z,99236.41
2022-10-21T13:05:39.788Z,99237.00
2022-10-21T13:06:58.680Z,99245.31
2022-10-21T13:08:16.185Z,99249.56
2022-10-21T13:09:44.770Z,99242.28
2022-10-21T13:11:04.187Z,99249.31
2022-10-21T13:12:11.009Z,99255.50
2022-10-21T13:13:44.145Z,99243.84
2022-10-21T13:14:52.079Z,99250.06
2022-10-21T13:15:56.738Z,99251.63
2022-10-21T13:17:21.992Z,99246.97
2022-10-21T13:18:52.265Z,99247.16
2022-10-21T13:20:21.518Z,99251.94
2022-10-21T13:21:40.979Z,99252.28
2022-10-21T13:23:03.574Z,99249.31
2022-10-21T13:24:32.159Z,99244.44
2022-10-21T13:25:36.903Z,99247.44
2022-10-21T13:27:18.646Z,99247.00
2022-10-21T13:28:26.481Z,99247.63
2022-10-21T13:29:43.059Z,99233.28
2022-10-21T13:30:50.117Z,99239.59
2022-10-21T13:32:15.394Z,99231.31
2022-10-21T13:33:27.340Z,99233.13
2022-10-21T13:34:32.561Z,99224.88
2022-10-21T13:35:50.295Z,99224.59
2022-10-21T13:36:55.366Z,99221.53
2022-10-21T13:38:18.150Z,99221.53
2022-10-21T13:39:29.349Z,99224.06
2022-10-21T13:40:50.284Z,99221.00
2022-10-21T13:42:05.875Z,99221.00
2022-10-21T13:43:24.713Z,99221.84
2022-10-21T13:44:37.030Z,99214.50
2022-10-21T13:45:50.325Z,99214.38
2022-10-21T13:46:54.207Z,99208.88
2022-10-21T13:48:14.473Z,99214.97
2022-10-21T13:49:32.884Z,99207.66
2022-10-21T13:50:41.790Z,99204.28
2022-10-21T13:51:47.281Z,99197.34
2022-10-21T13:52:55.369Z,99198.94
2022-10-21T13:54:11.813Z,99204.97
2022-10-21T13:55:25.649Z,99197.94
2022-10-21T13:56:34.000Z,99196.25
2022-10-21T13:57:38.561Z,99198.09
2022-10-21T13:58:44.578Z,99207.19
2022-10-21T14:00:17.573Z,99206.09
2022-10-21T14:01:29.638Z,99211.00
2022-10-21T14:02:34.288Z,99209.03
2022-10-21T14:03:38.457Z,99207.19
2022-10-21T14:04:43.096Z,99208.88
2022-10-21T14:06:01.768Z,99210.31
2022-10-21T14:07:16.242Z,99209.34
2022-10-21T14:08:37.847Z,99205.22
2022-10-21T14:09:45.977Z,99205.50
2022-10-21T14:10:50.117Z,99209.88